createdAt,value
2019-03-03T00:00:09.012Z,928.99
2019-03-03T00:00:22.085Z,929.02
2019-03-03T00:00:35.143Z,929.04
2019-03-03T00:00:48.141Z,929.04
2019-03-03T00:01:01.182Z,929.05
2019-03-03T00:01:14.206Z,929.04
2019-03-03T00:01:26.809Z,929.04
2019-03-03T00:01:39.878Z,929.08
2019-03-03T00:01:52.892Z,929.02
2019-03-03T00:02:05.937Z,929.06
2019-03-03T00:02:18.996Z,929.04
2019-03-03T00:02:32.025Z,929.08
2019-03-03T00:02:44.978Z,929.04
2019-03-03T00:02:57.967Z,929.02
2019-03-03T00:03:11.026Z,929.04
2019-03-03T00:03:24.092Z,929.02
2019-03-03T00:03:37.095Z,929.01
2019-03-03T00:03:50.138Z,929.02
2019-03-03T00:04:03.132Z,929.03
2019-03-03T00:04:16.178Z,929.05
2019-03-03T00:04:29.312Z,929
2019-03-03T00:04:42.314Z,929.05
2019-03-03T00:04:55.340Z,929.06
2019-03-03T00:05:08.396Z,929.07
2019-03-03T00:05:21.419Z,929.05
2019-03-03T00:05:34.431Z,929.06
2019-03-03T00:05:47.476Z,929.08
2019-03-03T00:06:00.452Z,929.04
2019-03-03T00:06:13.380Z,929.06
2019-03-03T00:06:26.373Z,929.06
2019-03-03T00:06:39.405Z,929.06
2019-03-03T00:06:51.962Z,929.07
2019-03-03T00:07:04.968Z,929.04
2019-03-03T00:07:17.972Z,929.06
2019-03-03T00:07:31.025Z,929.08
2019-03-03T00:07:44.067Z,929.06
2019-03-03T00:07:57.066Z,929.03
2019-03-03T00:08:10.147Z,929.05
2019-03-03T00:08:24.628Z,929.07
2019-03-03T00:08:37.687Z,929.08
2019-03-03T00:08:50.716Z,929.05
2019-03-03T00:09:03.735Z,929.07
2019-03-03T00:09:16.768Z,929.02
2019-03-03T00:09:29.734Z,929.06
2019-03-03T00:09:42.734Z,929.03
2019-03-03T00:09:55.718Z,929.03
2019-03-03T00:10:08.766Z,929.07
2019-03-03T00:10:21.786Z,929.08
2019-03-03T00:10:34.808Z,929.05
2019-03-03T00:10:47.810Z,929.07
2019-03-03T00:11:00.355Z,929.09
2019-03-03T00:11:13.369Z,929.06
2019-03-03T00:11:26.419Z,929.1
2019-03-03T00:11:39.457Z,929.08
2019-03-03T00:11:52.491Z,929.09
2019-03-03T00:12:05.480Z,929.1
2019-03-03T00:12:18.418Z,929.07
2019-03-03T00:12:31.404Z,929.1
2019-03-03T00:12:44.482Z,929.09
2019-03-03T00:12:57.456Z,929.08
2019-03-03T00:13:10.442Z,929.09
2019-03-03T00:13:23.517Z,929.1
2019-03-03T00:13:36.646Z,929.11
2019-03-03T00:13:49.668Z,929.12
2019-03-03T00:14:02.637Z,929.13
2019-03-03T00:14:15.693Z,929.14
2019-03-03T00:14:28.678Z,929.11
2019-03-03T00:14:41.202Z,929.13
2019-03-03T00:14:54.176Z,929.13
2019-03-03T00:15:09.810Z,929.12
2019-03-03T00:15:22.848Z,929.1
2019-03-03T00:15:35.856Z,929.15
2019-03-03T00:15:48.883Z,929.11
2019-03-03T00:16:01.944Z,929.12
2019-03-03T00:16:14.991Z,929.12
2019-03-03T00:16:27.978Z,929.13
2019-03-03T00:16:40.971Z,929.13
2019-03-03T00:16:53.948Z,929.15
2019-03-03T00:17:06.945Z,929.13
2019-03-03T00:17:19.929Z,929.13
2019-03-03T00:17:32.970Z,929.15
2019-03-03T00:17:45.959Z,929.16
2019-03-03T00:17:58.946Z,929.18
2019-03-03T00:18:11.970Z,929.14
2019-03-03T00:18:24.510Z,929.18
2019-03-03T00:18:37.492Z,929.18
2019-03-03T00:18:50.471Z,929.15
2019-03-03T00:19:03.479Z,929.17
2019-03-03T00:19:16.485Z,929.17
2019-03-03T00:19:29.464Z,929.16
2019-03-03T00:19:42.458Z,929.17
2019-03-03T00:19:55.456Z,929.18
2019-03-03T00:20:08.454Z,929.18
2019-03-03T00:20:21.463Z,929.18
2019-03-03T00:20:34.503Z,929.15
2019-03-03T00:20:47.049Z,929.14
2019-03-03T00:20:59.631Z,929.13
2019-03-03T00:21:12.709Z,929.14
2019-03-03T00:21:25.730Z,929.13
2019-03-03T00:21:38.881Z,929.11
2019-03-03T00:21:51.912Z,929.09
2019-03-03T00:22:04.507Z,929.08
2019-03-03T00:22:17.564Z,929.08
2019-03-03T00:22:30.597Z,929.1
2019-03-03T00:22:43.555Z,929.07
2019-03-03T00:22:56.576Z,929.07
2019-03-03T00:23:09.548Z,929.08
2019-03-03T00:23:22.566Z,929.12
2019-03-03T00:23:35.629Z,929.1
2019-03-03T00:23:48.617Z,929.1
2019-03-03T00:24:01.708Z,929.08
2019-03-03T00:24:14.739Z,929.09
2019-03-03T00:24:27.827Z,929.1
2019-03-03T00:24:40.778Z,929.07
2019-03-03T00:24:53.850Z,929.06
2019-03-03T00:25:06.855Z,929.11
2019-03-03T00:25:19.908Z,929.13
2019-03-03T00:25:32.891Z,929.13
2019-03-03T00:25:47.012Z,929.09
2019-03-03T00:26:00.038Z,929.13
2019-03-03T00:26:13.064Z,929.12
2019-03-03T00:26:25.671Z,929.18
2019-03-03T00:26:38.716Z,929.17
2019-03-03T00:26:51.717Z,929.16
2019-03-03T00:27:04.777Z,929.19
2019-03-03T00:27:17.870Z,929.16
2019-03-03T00:27:30.861Z,929.21
2019-03-03T00:27:43.911Z,929.22
2019-03-03T00:27:56.845Z,929.2
2019-03-03T00:28:09.866Z,929.24
2019-03-03T00:28:22.913Z,929.24
2019-03-03T00:28:35.924Z,929.21
2019-03-03T00:28:48.946Z,929.26
2019-03-03T00:29:02.018Z,929.28
2019-03-03T00:29:15.031Z,929.28
2019-03-03T00:29:28.100Z,929.24
2019-03-03T00:29:41.101Z,929.29
2019-03-03T00:29:54.098Z,929.31
2019-03-03T00:30:07.298Z,929.27
2019-03-03T00:30:20.272Z,929.28
2019-03-03T00:30:33.279Z,929.32
2019-03-03T00:30:46.322Z,929.29
2019-03-03T00:30:59.306Z,929.28
2019-03-03T00:31:12.290Z,929.26
2019-03-03T00:31:25.302Z,929.31
2019-03-03T00:31:38.333Z,929.3
2019-03-03T00:31:51.317Z,929.31
2019-03-03T00:32:04.401Z,929.29
2019-03-03T00:32:17.469Z,929.28
2019-03-03T00:32:30.524Z,929.32
2019-03-03T00:32:43.515Z,929.3
2019-03-03T00:32:56.556Z,929.3
2019-03-03T00:33:09.507Z,929.3
2019-03-03T00:33:22.469Z,929.3
2019-03-03T00:33:35.543Z,929.25
2019-03-03T00:33:48.596Z,929.26
2019-03-03T00:34:01.645Z,929.25
2019-03-03T00:34:14.669Z,929.26
2019-03-03T00:34:27.723Z,929.25
2019-03-03T00:34:40.831Z,929.2
2019-03-03T00:34:53.851Z,929.23
2019-03-03T00:35:06.886Z,929.23
2019-03-03T00:35:19.459Z,929.22
2019-03-03T00:35:32.783Z,929.18
2019-03-03T00:35:45.785Z,929.19
2019-03-03T00:35:58.804Z,929.2
2019-03-03T00:36:11.818Z,929.15
2019-03-03T00:36:24.863Z,929.19
2019-03-03T00:36:37.915Z,929.18
2019-03-03T00:36:50.966Z,929.18
2019-03-03T00:37:04.024Z,929.15
2019-03-03T00:37:17.022Z,929.16
2019-03-03T00:37:30.052Z,929.16
2019-03-03T00:37:43.139Z,929.18
2019-03-03T00:37:56.111Z,929.15
2019-03-03T00:38:09.102Z,929.18
2019-03-03T00:38:22.046Z,929.19
2019-03-03T00:38:35.053Z,929.2
2019-03-03T00:38:47.997Z,929.19
2019-03-03T00:39:01.032Z,929.17
2019-03-03T00:39:14.064Z,929.2
2019-03-03T00:39:27.109Z,929.21
2019-03-03T00:39:40.076Z,929.21
2019-03-03T00:39:53.106Z,929.23
2019-03-03T00:40:06.140Z,929.21
2019-03-03T00:40:19.211Z,929.22
2019-03-03T00:40:32.208Z,929.23
2019-03-03T00:40:45.178Z,929.28
2019-03-03T00:40:58.139Z,929.25
2019-03-03T00:41:11.137Z,929.26
2019-03-03T00:41:24.232Z,929.28
2019-03-03T00:41:37.204Z,929.3
2019-03-03T00:41:50.274Z,929.3
2019-03-03T00:42:03.332Z,929.31
2019-03-03T00:42:16.326Z,929.28
2019-03-03T00:42:29.387Z,929.31
2019-03-03T00:42:42.392Z,929.27
2019-03-03T00:42:55.433Z,929.28
2019-03-03T00:43:08.452Z,929.31
2019-03-03T00:43:21.480Z,929.31
2019-03-03T00:43:34.523Z,929.33
2019-03-03T00:43:47.552Z,929.29
2019-03-03T00:44:00.515Z,929.26
2019-03-03T00:44:13.527Z,929.29
2019-03-03T00:44:26.635Z,929.28
2019-03-03T00:44:39.666Z,929.25
2019-03-03T00:44:53.108Z,929.26
2019-03-03T00:45:06.173Z,929.25
2019-03-03T00:45:20.298Z,929.25
2019-03-03T00:45:33.329Z,929.26
2019-03-03T00:45:46.320Z,929.24
2019-03-03T00:45:59.356Z,929.23
2019-03-03T00:46:12.418Z,929.21
2019-03-03T00:46:24.996Z,929.18
2019-03-03T00:46:38.038Z,929.2
2019-03-03T00:46:51.049Z,929.15
2019-03-03T00:47:04.048Z,929.15
2019-03-03T00:47:17.047Z,929.14
2019-03-03T00:47:30.093Z,929.13
2019-03-03T00:47:43.145Z,929.14
2019-03-03T00:47:55.660Z,929.1
2019-03-03T00:48:08.675Z,929.12
2019-03-03T00:48:21.710Z,929.11
2019-03-03T00:48:34.742Z,929.08
2019-03-03T00:48:47.754Z,929.08
2019-03-03T00:49:00.701Z,929.07
2019-03-03T00:49:13.706Z,929.09
2019-03-03T00:49:26.761Z,929.06
2019-03-03T00:49:39.723Z,929.08
2019-03-03T00:49:52.737Z,929.08
2019-03-03T00:50:05.776Z,929.05
2019-03-03T00:50:18.802Z,929.07
2019-03-03T00:50:31.879Z,929.08
2019-03-03T00:50:44.887Z,929.09
2019-03-03T00:50:57.413Z,929.06
2019-03-03T00:51:10.477Z,929.06
2019-03-03T00:51:23.560Z,929.05
2019-03-03T00:51:36.606Z,929.06
2019-03-03T00:51:49.587Z,929.06
2019-03-03T00:52:02.560Z,929.06
2019-03-03T00:52:15.605Z,929.07
2019-03-03T00:52:28.116Z,929.08
2019-03-03T00:52:41.194Z,929.04
2019-03-03T00:52:54.173Z,929.05
2019-03-03T00:53:07.125Z,929.03
2019-03-03T00:53:20.195Z,929.05
2019-03-03T00:53:33.271Z,929.01
2019-03-03T00:53:46.312Z,929.04
2019-03-03T00:53:59.317Z,928.98
2019-03-03T00:54:12.392Z,929.01
2019-03-03T00:54:25.432Z,928.99
2019-03-03T00:54:38.459Z,928.97
2019-03-03T00:54:51.438Z,928.96
2019-03-03T00:55:04.421Z,928.98
2019-03-03T00:55:17.396Z,928.98
2019-03-03T00:55:30.408Z,928.96
2019-03-03T00:55:43.420Z,928.95
2019-03-03T00:55:56.416Z,928.96
2019-03-03T00:56:09.469Z,928.97
2019-03-03T00:56:22.444Z,928.96
2019-03-03T00:56:35.447Z,928.96
2019-03-03T00:56:48.479Z,928.93
2019-03-03T00:57:01.528Z,928.97
2019-03-03T00:57:14.548Z,928.96
2019-03-03T00:57:27.540Z,928.97
2019-03-03T00:57:40.527Z,928.94
2019-03-03T00:57:53.503Z,928.98
2019-03-03T00:58:06.581Z,928.98
2019-03-03T00:58:19.683Z,928.99
2019-03-03T00:58:32.756Z,929
2019-03-03T00:58:45.745Z,928.95
2019-03-03T00:58:58.798Z,928.99
2019-03-03T00:59:11.773Z,929
2019-03-03T00:59:24.795Z,929.02
2019-03-03T00:59:37.786Z,928.99
2019-03-03T00:59:50.778Z,929.03
2019-03-03T01:00:03.820Z,929.04
2019-03-03T01:00:16.874Z,929.04
2019-03-03T01:00:30.576Z,929.02
2019-03-03T01:00:43.585Z,929.03
2019-03-03T01:00:58.114Z,929.05
2019-03-03T01:01:11.254Z,929.05
2019-03-03T01:01:24.262Z,929.07
2019-03-03T01:01:37.319Z,929.06
2019-03-03T01:01:50.337Z,929.02
2019-03-03T01:02:03.338Z,929.06
2019-03-03T01:02:16.342Z,929.05
2019-03-03T01:02:29.306Z,929.05
2019-03-03T01:02:42.326Z,929.06
2019-03-03T01:02:55.321Z,929.05
2019-03-03T01:03:08.369Z,929.03
2019-03-03T01:03:21.404Z,929.05
2019-03-03T01:03:34.423Z,929.05
2019-03-03T01:03:47.423Z,929.04
2019-03-03T01:04:00.436Z,929.02
2019-03-03T01:04:13.438Z,929.02
2019-03-03T01:04:26.482Z,929.04
2019-03-03T01:04:39.027Z,928.99
2019-03-03T01:04:51.985Z,929.03
2019-03-03T01:05:05.075Z,929
2019-03-03T01:05:18.092Z,929.03
2019-03-03T01:05:30.572Z,929.01
2019-03-03T01:05:43.558Z,929
2019-03-03T01:05:56.540Z,928.99
2019-03-03T01:06:09.467Z,928.99
2019-03-03T01:06:22.415Z,929
2019-03-03T01:06:35.505Z,928.99
2019-03-03T01:06:48.522Z,928.94
2019-03-03T01:07:01.511Z,928.94
2019-03-03T01:07:14.576Z,928.93
2019-03-03T01:07:27.552Z,928.93
2019-03-03T01:07:40.589Z,928.92
2019-03-03T01:07:53.584Z,928.94
2019-03-03T01:08:06.649Z,928.89
2019-03-03T01:08:19.645Z,928.87
2019-03-03T01:08:32.190Z,928.88
2019-03-03T01:08:45.210Z,928.88
2019-03-03T01:08:58.204Z,928.84
2019-03-03T01:09:10.749Z,928.87
2019-03-03T01:09:23.728Z,928.87
2019-03-03T01:09:36.779Z,928.86
2019-03-03T01:09:49.772Z,928.84
2019-03-03T01:10:02.837Z,928.83
2019-03-03T01:10:15.902Z,928.85
2019-03-03T01:10:28.533Z,928.83
2019-03-03T01:10:41.606Z,928.83
2019-03-03T01:10:54.143Z,928.83
2019-03-03T01:11:07.130Z,928.79
2019-03-03T01:11:20.125Z,928.81
2019-03-03T01:11:33.112Z,928.78
2019-03-03T01:11:46.071Z,928.79
2019-03-03T01:11:59.022Z,928.78
2019-03-03T01:12:12.056Z,928.78
2019-03-03T01:12:25.038Z,928.79
2019-03-03T01:12:38.028Z,928.78
2019-03-03T01:12:51.041Z,928.78
2019-03-03T01:13:04.088Z,928.77
2019-03-03T01:13:17.172Z,928.79
2019-03-03T01:13:30.211Z,928.79
2019-03-03T01:13:43.193Z,928.79
2019-03-03T01:13:56.810Z,928.8
2019-03-03T01:14:09.818Z,928.79
2019-03-03T01:14:22.813Z,928.8
2019-03-03T01:14:35.814Z,928.79
2019-03-03T01:14:48.816Z,928.79
2019-03-03T01:15:01.803Z,928.78
2019-03-03T01:15:14.857Z,928.82
2019-03-03T01:15:28.803Z,928.82
2019-03-03T01:15:41.807Z,928.83
2019-03-03T01:15:54.328Z,928.81
2019-03-03T01:16:07.435Z,928.82
2019-03-03T01:16:20.414Z,928.82
2019-03-03T01:16:33.491Z,928.81
2019-03-03T01:16:46.477Z,928.84
2019-03-03T01:16:59.516Z,928.84
2019-03-03T01:17:12.540Z,928.87
2019-03-03T01:17:25.538Z,928.88
2019-03-03T01:17:38.544Z,928.87
2019-03-03T01:17:51.640Z,928.86
2019-03-03T01:18:04.661Z,928.87
2019-03-03T01:18:17.626Z,928.87
2019-03-03T01:18:30.645Z,928.88
2019-03-03T01:18:43.659Z,928.84
2019-03-03T01:18:56.675Z,928.88
2019-03-03T01:19:09.692Z,928.92
2019-03-03T01:19:22.738Z,928.9
2019-03-03T01:19:35.756Z,928.87
2019-03-03T01:19:48.821Z,928.88
2019-03-03T01:20:01.803Z,928.84
2019-03-03T01:20:14.832Z,928.86
2019-03-03T01:20:27.875Z,928.88
2019-03-03T01:20:40.925Z,928.88
2019-03-03T01:20:53.940Z,928.87
2019-03-03T01:21:06.491Z,928.85
2019-03-03T01:21:19.486Z,928.84
2019-03-03T01:21:32.413Z,928.86
2019-03-03T01:21:45.465Z,928.87
2019-03-03T01:21:58.484Z,928.87
2019-03-03T01:22:11.496Z,928.86
2019-03-03T01:22:24.481Z,928.85
2019-03-03T01:22:37.454Z,928.84
2019-03-03T01:22:50.407Z,928.87
2019-03-03T01:23:04.323Z,928.88
2019-03-03T01:23:17.313Z,928.87
2019-03-03T01:23:30.342Z,928.9
2019-03-03T01:23:43.360Z,928.89
2019-03-03T01:23:56.398Z,928.9
2019-03-03T01:24:09.431Z,928.9
2019-03-03T01:24:22.495Z,928.9
2019-03-03T01:24:35.514Z,928.88
2019-03-03T01:24:48.558Z,928.89
2019-03-03T01:25:01.517Z,928.91
2019-03-03T01:25:14.497Z,928.9
2019-03-03T01:25:27.539Z,928.9
2019-03-03T01:25:40.472Z,928.9
2019-03-03T01:25:53.534Z,928.94
2019-03-03T01:26:06.588Z,928.92
2019-03-03T01:26:19.578Z,928.9
2019-03-03T01:26:32.581Z,928.92
2019-03-03T01:26:45.610Z,928.92
2019-03-03T01:26:58.650Z,928.96
2019-03-03T01:27:11.651Z,928.94
2019-03-03T01:27:24.649Z,928.91
2019-03-03T01:27:37.680Z,928.94
2019-03-03T01:27:50.718Z,928.92
2019-03-03T01:28:03.686Z,928.96
2019-03-03T01:28:16.669Z,928.94
2019-03-03T01:28:29.678Z,928.96
2019-03-03T01:28:42.669Z,928.95
2019-03-03T01:28:55.722Z,928.95
2019-03-03T01:29:09.902Z,928.96
2019-03-03T01:29:22.912Z,928.94
2019-03-03T01:29:35.864Z,928.99
2019-03-03T01:29:48.915Z,928.97
2019-03-03T01:30:02.004Z,928.96
2019-03-03T01:30:15.050Z,928.98
2019-03-03T01:30:28.111Z,928.96
2019-03-03T01:30:41.648Z,928.98
2019-03-03T01:30:54.659Z,928.97
2019-03-03T01:31:07.685Z,928.98
2019-03-03T01:31:20.732Z,929
2019-03-03T01:31:33.773Z,928.98
2019-03-03T01:31:46.351Z,929.01
2019-03-03T01:31:59.381Z,929.02
2019-03-03T01:32:12.427Z,928.99
2019-03-03T01:32:25.389Z,929
2019-03-03T01:32:38.433Z,929.01
2019-03-03T01:32:51.459Z,928.99
2019-03-03T01:33:04.496Z,929
2019-03-03T01:33:17.528Z,929
2019-03-03T01:33:30.564Z,929.02
2019-03-03T01:33:43.589Z,929.01
2019-03-03T01:33:56.648Z,929.01
2019-03-03T01:34:09.745Z,929.01
2019-03-03T01:34:22.752Z,928.99
2019-03-03T01:34:35.758Z,928.97
2019-03-03T01:34:48.771Z,928.98
2019-03-03T01:35:01.855Z,928.98
2019-03-03T01:35:14.867Z,928.94
2019-03-03T01:35:27.879Z,928.92
2019-03-03T01:35:40.981Z,928.96
2019-03-03T01:35:53.991Z,928.92
2019-03-03T01:36:06.552Z,928.92
2019-03-03T01:36:19.537Z,928.9
2019-03-03T01:36:32.616Z,928.9
2019-03-03T01:36:45.684Z,928.9
2019-03-03T01:36:58.715Z,928.91
2019-03-03T01:37:11.782Z,928.88
2019-03-03T01:37:24.816Z,928.88
2019-03-03T01:37:37.916Z,928.86
2019-03-03T01:37:50.914Z,928.85
2019-03-03T01:38:03.919Z,928.82
2019-03-03T01:38:16.999Z,928.88
2019-03-03T01:38:29.958Z,928.84
2019-03-03T01:38:43.050Z,928.84
2019-03-03T01:38:56.076Z,928.83
2019-03-03T01:39:08.605Z,928.84
2019-03-03T01:39:21.618Z,928.84
2019-03-03T01:39:34.672Z,928.84
2019-03-03T01:39:47.669Z,928.81
2019-03-03T01:40:00.704Z,928.86
2019-03-03T01:40:13.662Z,928.8
2019-03-03T01:40:26.297Z,928.8
2019-03-03T01:40:39.358Z,928.8
2019-03-03T01:40:52.375Z,928.78
2019-03-03T01:41:07.422Z,928.76
2019-03-03T01:41:20.467Z,928.78
2019-03-03T01:41:33.481Z,928.77
2019-03-03T01:41:46.516Z,928.77
2019-03-03T01:41:59.524Z,928.74
2019-03-03T01:42:12.543Z,928.74
2019-03-03T01:42:25.611Z,928.71
2019-03-03T01:42:38.673Z,928.69
2019-03-03T01:42:51.712Z,928.7
2019-03-03T01:43:04.344Z,928.71
2019-03-03T01:43:17.381Z,928.68
2019-03-03T01:43:30.425Z,928.67
2019-03-03T01:43:43.503Z,928.67
2019-03-03T01:43:56.537Z,928.69
2019-03-03T01:44:09.529Z,928.67
2019-03-03T01:44:22.160Z,928.67
2019-03-03T01:44:35.174Z,928.64
2019-03-03T01:44:48.187Z,928.68
2019-03-03T01:45:01.402Z,928.67
2019-03-03T01:45:13.959Z,928.61
2019-03-03T01:45:27.030Z,928.64
2019-03-03T01:45:40.851Z,928.64
2019-03-03T01:45:53.823Z,928.62
2019-03-03T01:46:06.865Z,928.62
2019-03-03T01:46:19.415Z,928.59
2019-03-03T01:46:32.371Z,928.61
2019-03-03T01:46:45.298Z,928.63
2019-03-03T01:46:58.414Z,928.63
2019-03-03T01:47:11.409Z,928.6
2019-03-03T01:47:24.412Z,928.59
2019-03-03T01:47:37.451Z,928.61
2019-03-03T01:47:50.436Z,928.61
2019-03-03T01:48:03.507Z,928.57
2019-03-03T01:48:16.551Z,928.56
2019-03-03T01:48:29.572Z,928.53
2019-03-03T01:48:42.583Z,928.53
2019-03-03T01:48:55.599Z,928.54
2019-03-03T01:49:08.625Z,928.53
2019-03-03T01:49:21.701Z,928.52
2019-03-03T01:49:34.711Z,928.5
2019-03-03T01:49:47.771Z,928.5
2019-03-03T01:50:00.857Z,928.49
2019-03-03T01:50:13.839Z,928.47
2019-03-03T01:50:26.871Z,928.48
2019-03-03T01:50:39.914Z,928.46
2019-03-03T01:50:52.992Z,928.43
2019-03-03T01:51:06.052Z,928.39
2019-03-03T01:51:19.049Z,928.39
2019-03-03T01:51:32.055Z,928.44
2019-03-03T01:51:45.001Z,928.41
2019-03-03T01:51:57.993Z,928.4
2019-03-03T01:52:10.902Z,928.38
2019-03-03T01:52:23.900Z,928.37
2019-03-03T01:52:36.920Z,928.37
2019-03-03T01:52:49.932Z,928.36
2019-03-03T01:53:02.434Z,928.37
2019-03-03T01:53:15.401Z,928.34
2019-03-03T01:53:28.433Z,928.35
2019-03-03T01:53:41.455Z,928.34
2019-03-03T01:53:54.445Z,928.32
2019-03-03T01:54:07.440Z,928.29
2019-03-03T01:54:20.501Z,928.31
2019-03-03T01:54:33.501Z,928.28
2019-03-03T01:54:46.538Z,928.25
2019-03-03T01:54:59.571Z,928.31
2019-03-03T01:55:12.645Z,928.27
2019-03-03T01:55:25.616Z,928.26
2019-03-03T01:55:38.637Z,928.23
2019-03-03T01:55:51.634Z,928.25
2019-03-03T01:56:04.577Z,928.27
2019-03-03T01:56:17.630Z,928.25
2019-03-03T01:56:30.683Z,928.24
2019-03-03T01:56:43.684Z,928.23
2019-03-03T01:56:56.718Z,928.24
2019-03-03T01:57:09.725Z,928.22
2019-03-03T01:57:22.737Z,928.28
2019-03-03T01:57:35.677Z,928.26
2019-03-03T01:57:48.703Z,928.25
2019-03-03T01:58:01.747Z,928.26
2019-03-03T01:58:14.817Z,928.29
2019-03-03T01:58:27.859Z,928.27
2019-03-03T01:58:40.885Z,928.28
2019-03-03T01:58:53.897Z,928.29
2019-03-03T01:59:06.922Z,928.25
2019-03-03T01:59:19.924Z,928.26
2019-03-03T01:59:32.965Z,928.25
2019-03-03T01:59:46.065Z,928.28
2019-03-03T01:59:59.091Z,928.24
2019-03-03T02:00:12.132Z,928.28
2019-03-03T02:00:25.227Z,928.29
2019-03-03T02:00:38.327Z,928.28
2019-03-03T02:00:52.264Z,928.33
2019-03-03T02:01:05.272Z,928.34
2019-03-03T02:01:18.262Z,928.33
2019-03-03T02:01:31.216Z,928.32
2019-03-03T02:01:44.243Z,928.35
2019-03-03T02:01:57.274Z,928.34
2019-03-03T02:02:10.278Z,928.38
2019-03-03T02:02:23.306Z,928.35
2019-03-03T02:02:35.860Z,928.41
2019-03-03T02:02:48.883Z,928.43
2019-03-03T02:03:01.954Z,928.43
2019-03-03T02:03:14.845Z,928.47
2019-03-03T02:03:27.781Z,928.46
2019-03-03T02:03:40.771Z,928.49
2019-03-03T02:03:53.795Z,928.53
2019-03-03T02:04:06.789Z,928.55
2019-03-03T02:04:19.866Z,928.52
2019-03-03T02:04:32.340Z,928.57
2019-03-03T02:04:45.409Z,928.57
2019-03-03T02:04:58.487Z,928.58
2019-03-03T02:05:11.478Z,928.58
2019-03-03T02:05:24.589Z,928.6
2019-03-03T02:05:37.558Z,928.58
2019-03-03T02:05:50.580Z,928.6
2019-03-03T02:06:03.165Z,928.62
2019-03-03T02:06:16.189Z,928.62
2019-03-03T02:06:29.219Z,928.61
2019-03-03T02:06:42.213Z,928.61
2019-03-03T02:06:55.217Z,928.62
2019-03-03T02:07:08.287Z,928.64
2019-03-03T02:07:21.331Z,928.65
2019-03-03T02:07:34.383Z,928.64
2019-03-03T02:07:47.353Z,928.63
2019-03-03T02:08:00.331Z,928.63
2019-03-03T02:08:12.833Z,928.64
2019-03-03T02:08:25.845Z,928.62
2019-03-03T02:08:38.411Z,928.67
2019-03-03T02:08:51.450Z,928.62
2019-03-03T02:09:04.470Z,928.61
2019-03-03T02:09:17.455Z,928.61
2019-03-03T02:09:30.557Z,928.6
2019-03-03T02:09:43.542Z,928.6
2019-03-03T02:09:56.534Z,928.64
2019-03-03T02:10:09.573Z,928.62
2019-03-03T02:10:22.600Z,928.62
2019-03-03T02:10:35.121Z,928.62
2019-03-03T02:10:48.191Z,928.62
2019-03-03T02:11:01.232Z,928.59
2019-03-03T02:11:14.264Z,928.64
2019-03-03T02:11:27.294Z,928.66
2019-03-03T02:11:40.302Z,928.61
2019-03-03T02:11:53.343Z,928.63
2019-03-03T02:12:06.378Z,928.62
2019-03-03T02:12:19.408Z,928.63
2019-03-03T02:12:32.464Z,928.64
2019-03-03T02:12:45.449Z,928.57
2019-03-03T02:12:58.422Z,928.61
2019-03-03T02:13:11.434Z,928.61
2019-03-03T02:13:24.474Z,928.61
2019-03-03T02:13:37.498Z,928.59
2019-03-03T02:13:50.490Z,928.58
2019-03-03T02:14:03.461Z,928.56
2019-03-03T02:14:16.416Z,928.57
2019-03-03T02:14:28.941Z,928.53
2019-03-03T02:14:41.952Z,928.54
2019-03-03T02:14:54.954Z,928.55
2019-03-03T02:15:08.012Z,928.53
2019-03-03T02:15:20.998Z,928.52
2019-03-03T02:15:34.052Z,928.5
2019-03-03T02:15:47.112Z,928.48
2019-03-03T02:16:00.844Z,928.45
2019-03-03T02:16:13.863Z,928.46
2019-03-03T02:16:26.920Z,928.42
2019-03-03T02:16:39.949Z,928.41
2019-03-03T02:16:52.964Z,928.4
2019-03-03T02:17:06.039Z,928.42
2019-03-03T02:17:19.096Z,928.37
2019-03-03T02:17:32.078Z,928.41
2019-03-03T02:17:45.122Z,928.41
2019-03-03T02:17:58.146Z,928.41
2019-03-03T02:18:11.124Z,928.43
2019-03-03T02:18:24.174Z,928.44
2019-03-03T02:18:37.210Z,928.43
2019-03-03T02:18:50.270Z,928.47
2019-03-03T02:19:03.343Z,928.46
2019-03-03T02:19:16.402Z,928.47
2019-03-03T02:19:29.464Z,928.5
2019-03-03T02:19:42.475Z,928.48
2019-03-03T02:19:55.480Z,928.53
2019-03-03T02:20:08.518Z,928.51
2019-03-03T02:20:21.501Z,928.51
2019-03-03T02:20:34.488Z,928.56
2019-03-03T02:20:47.553Z,928.55
2019-03-03T02:21:00.143Z,928.54
2019-03-03T02:21:13.142Z,928.5
2019-03-03T02:21:26.082Z,928.53
2019-03-03T02:21:39.096Z,928.57
2019-03-03T02:21:52.093Z,928.56
2019-03-03T02:22:05.118Z,928.56
2019-03-03T02:22:18.111Z,928.55
2019-03-03T02:22:31.154Z,928.52
2019-03-03T02:22:44.107Z,928.55
2019-03-03T02:22:57.120Z,928.57
2019-03-03T02:23:10.090Z,928.57
2019-03-03T02:23:23.173Z,928.58
2019-03-03T02:23:36.172Z,928.57
2019-03-03T02:23:49.199Z,928.61
2019-03-03T02:24:02.242Z,928.62
2019-03-03T02:24:14.812Z,928.64
2019-03-03T02:24:27.848Z,928.62
2019-03-03T02:24:40.834Z,928.67
2019-03-03T02:24:53.891Z,928.7
2019-03-03T02:25:06.974Z,928.69
2019-03-03T02:25:19.997Z,928.76
2019-03-03T02:25:33.088Z,928.76
2019-03-03T02:25:46.083Z,928.76
2019-03-03T02:25:59.106Z,928.76
2019-03-03T02:26:12.079Z,928.79
2019-03-03T02:26:25.091Z,928.77
2019-03-03T02:26:38.172Z,928.78
2019-03-03T02:26:51.172Z,928.79
2019-03-03T02:27:04.213Z,928.82
2019-03-03T02:27:17.217Z,928.83
2019-03-03T02:27:29.698Z,928.83
2019-03-03T02:27:42.710Z,928.84
2019-03-03T02:27:55.840Z,928.82
2019-03-03T02:28:08.858Z,928.86
2019-03-03T02:28:21.816Z,928.84
2019-03-03T02:28:34.800Z,928.88
2019-03-03T02:28:47.842Z,928.88
2019-03-03T02:29:00.837Z,928.87
2019-03-03T02:29:13.881Z,928.9
2019-03-03T02:29:26.864Z,928.93
2019-03-03T02:29:39.862Z,928.93
2019-03-03T02:29:52.915Z,928.92
2019-03-03T02:30:05.889Z,928.95
2019-03-03T02:30:18.536Z,928.95
2019-03-03T02:30:31.535Z,928.98
2019-03-03T02:30:44.590Z,928.99
2019-03-03T02:30:58.364Z,928.97
2019-03-03T02:31:11.476Z,929
2019-03-03T02:31:24.524Z,929
2019-03-03T02:31:37.586Z,928.98
2019-03-03T02:31:50.679Z,929.02
2019-03-03T02:32:03.716Z,929.02
2019-03-03T02:32:16.762Z,929.03
2019-03-03T02:32:29.744Z,929.03
2019-03-03T02:32:42.823Z,929.03
2019-03-03T02:32:55.926Z,929.05
2019-03-03T02:33:08.980Z,929.03
2019-03-03T02:33:22.026Z,929.04
2019-03-03T02:33:35.100Z,929.06
2019-03-03T02:33:48.183Z,929.06
2019-03-03T02:34:01.327Z,929.08
2019-03-03T02:34:14.336Z,929.08
2019-03-03T02:34:27.324Z,929.09
2019-03-03T02:34:40.382Z,929.07
2019-03-03T02:34:53.439Z,929.08
2019-03-03T02:35:06.455Z,929.06
2019-03-03T02:35:19.623Z,929.07
2019-03-03T02:35:32.570Z,929.09
2019-03-03T02:35:45.608Z,929.08
2019-03-03T02:35:58.647Z,929.09
2019-03-03T02:36:11.706Z,929.09
2019-03-03T02:36:24.753Z,929.09
2019-03-03T02:36:37.832Z,929.09
2019-03-03T02:36:50.888Z,929.1
2019-03-03T02:37:03.962Z,929.07
2019-03-03T02:37:17.038Z,929.1
2019-03-03T02:37:29.604Z,929.09
2019-03-03T02:37:42.660Z,929.09
2019-03-03T02:37:55.673Z,929.08
2019-03-03T02:38:08.748Z,929.12
2019-03-03T02:38:21.820Z,929.12
2019-03-03T02:38:34.865Z,929.06
2019-03-03T02:38:47.907Z,929.09
2019-03-03T02:39:00.932Z,929.08
2019-03-03T02:39:13.950Z,929.07
2019-03-03T02:39:26.974Z,929.1
2019-03-03T02:39:40.013Z,929.1
2019-03-03T02:39:53.089Z,929.08
2019-03-03T02:40:06.099Z,929.08
2019-03-03T02:40:19.075Z,929.07
2019-03-03T02:40:32.161Z,929.09
2019-03-03T02:40:45.290Z,929.06
2019-03-03T02:40:58.313Z,929.06
2019-03-03T02:41:11.285Z,929.06
2019-03-03T02:41:24.317Z,929.06
2019-03-03T02:41:37.305Z,929.03
2019-03-03T02:41:49.873Z,929.01
2019-03-03T02:42:02.889Z,929.03
2019-03-03T02:42:15.992Z,929.04
2019-03-03T02:42:28.991Z,929.06
2019-03-03T02:42:42.030Z,929.03
2019-03-03T02:42:55.067Z,928.99
2019-03-03T02:43:07.584Z,929.02